F/V Les Menhirs — FGJI — position and weather

sailwx.info

Track history (hours):
 
Tides and Currents Weather Stations Pressure Air Temp Water Temp Dewpoint Dewpoint Depression Visibility Wind Speed Wind Dir Waves Ship Positions

F/V Les Menhirs

Last reported at 2018-Jan-19 03:45 UTC. Time now 2018-Jan-19 07:54 UTC.
Position N 47°10' W 003°21'.

Length 18 m.

Type: Fishing. MMSI: 228138000.

Date/timePositionNaut miles runAvg speedWind from/ knotsBaromVisibWave heightAir tempDewpointWater temp
2018-Jan-19 03:45N 47°10' W 003°21'2 9.0
2018-Jan-19 03:30N 47°12' W 003°21'5 9.1
2018-Jan-19 03:00N 47°16' W 003°21'5 9.1
2018-Jan-19 02:30N 47°21' W 003°21'4 8.8
2018-Jan-19 02:00N 47°25' W 003°22'5 8.9
2018-Jan-19 01:30N 47°30' W 003°22'4 8.8
2018-Jan-19 01:00N 47°34' W 003°22'4 8.9
2018-Jan-19 00:30N 47°39' W 003°22'4 8.9
2018-Jan-19 00:00N 47°43' W 003°22'1 1.0
2018-Jan-18 23:30N 47°44' W 003°22'0 0.1
2018-Jan-18 23:00N 47°44' W 003°22'0 0.0
2018-Jan-18 22:30N 47°44' W 003°22'0 0.0
2018-Jan-18 22:00N 47°44' W 003°22'0 0.0
2018-Jan-18 21:30N 47°44' W 003°22'0 0.0
2018-Jan-18 21:00N 47°44' W 003°22'0 0.0
2018-Jan-18 20:30N 47°44' W 003°22'0 0.0
2018-Jan-18 20:00N 47°44' W 003°22'0 0.0
2018-Jan-18 19:30N 47°44' W 003°22'0 0.0
2018-Jan-18 19:00N 47°44' W 003°22'0 0.0
2018-Jan-18 18:30N 47°44' W 003°22'0 0.0
2018-Jan-18 18:00N 47°44' W 003°22'0 0.0
2018-Jan-18 17:30N 47°44' W 003°22'0 0.0
2018-Jan-18 17:00N 47°44' W 003°22'0 0.0
2018-Jan-18 16:29N 47°44' W 003°22'0 0.0
2018-Jan-18 16:00N 47°44' W 003°22'0 0.0
2018-Jan-18 15:30N 47°44' W 003°22'0 0.0
2018-Jan-18 15:00N 47°44' W 003°22'0 0.0
2018-Jan-18 14:30N 47°44' W 003°22'0 0.0
2018-Jan-18 14:00N 47°44' W 003°22'0 0.0
2018-Jan-18 13:30N 47°44' W 003°22'0 0.0
2018-Jan-18 13:00N 47°44' W 003°22'0 0.0
2018-Jan-18 12:30N 47°44' W 003°22'0 0.0
2018-Jan-18 12:00N 47°44' W 003°22'0 0.0
2018-Jan-18 11:30N 47°44' W 003°22'0 0.0
2018-Jan-18 11:00N 47°44' W 003°22'0 0.0
2018-Jan-18 10:30N 47°44' W 003°22'0 0.0
2018-Jan-18 10:00N 47°44' W 003°22'0 0.0
2018-Jan-18 09:30N 47°44' W 003°22'0 0.0
2018-Jan-18 09:00N 47°44' W 003°22'0 0.0
2018-Jan-18 08:30N 47°44' W 003°22'0 0.0
2018-Jan-18 07:59N 47°44' W 003°22'0 0.0
2018-Jan-18 07:30N 47°44' W 003°22'0 0.0
2018-Jan-18 07:00N 47°44' W 003°22'0 0.0
2018-Jan-18 06:30N 47°44' W 003°22'0 0.0
2018-Jan-18 06:00N 47°44' W 003°22'0 0.0
2018-Jan-18 05:30N 47°44' W 003°22'0 0.0
2018-Jan-18 05:00N 47°44' W 003°22'0 0.0
2018-Jan-18 04:30N 47°44' W 003°22'0 0.0
2018-Jan-18 04:00N 47°44' W 003°22'0 0.0
2018-Jan-18 03:30N 47°44' W 003°22'0 0.0
2018-Jan-18 03:00N 47°44' W 003°22'0 0.0
2018-Jan-18 02:30N 47°44' W 003°22'0 0.0
2018-Jan-18 02:00N 47°44' W 003°22'0 0.0
2018-Jan-18 01:30N 47°44' W 003°22'0 0.0
2018-Jan-18 01:00N 47°44' W 003°22'0 0.0
2018-Jan-18 00:00N 47°44' W 003°22'0 0.0
2018-Jan-17 23:57N 47°44' W 003°22'  
2018-Jan-12 04:53N 47°05' W 002°39'4 9.1
2018-Jan-12 04:24N 47°09' W 002°37'4 9.1
2018-Jan-12 03:56N 47°14' W 002°36'4 9.2
2018-Jan-12 03:29N 47°18' W 002°35'4 2.3
2018-Jan-12 01:39N 47°21' W 002°31'0 0.3
2018-Jan-12 01:30N 47°21' W 002°31'0 0.0
2018-Jan-12 01:00N 47°21' W 002°31'0 0.0
2018-Jan-12 00:30N 47°21' W 002°31'0 0.0
2018-Jan-12 00:00N 47°21' W 002°31'13 8.1
2018-Jan-11 22:22N 47°17' W 002°50'4 9.2
2018-Jan-11 21:53N 47°15' W 002°55'1 1.5
2018-Jan-11 21:30N 47°16' W 002°55'1 2.4
2018-Jan-11 20:59N 47°16' W 002°54'1 2.6
2018-Jan-11 20:30N 47°16' W 002°52'2 3.4
2018-Jan-11 20:00N 47°15' W 002°51'3 2.7
2018-Jan-11 18:53N 47°14' W 002°55'1 3.4
2018-Jan-11 18:30N 47°15' W 002°55'1 2.6
2018-Jan-11 17:59N 47°16' W 002°54'2 3.1
2018-Jan-11 17:30N 47°16' W 002°52'2 3.4
2018-Jan-11 16:59N 47°15' W 002°50'10 2.3
2018-Jan-11 12:45N 47°09' W 003°02'10 0.4
2018-Jan-10 13:32N 47°00' W 002°55'12 0.8
2018-Jan-09 23:31N 47°10' W 002°45'0 8.6
2018-Jan-09 23:30N 47°10' W 002°45'4 8.8
2018-Jan-09 23:00N 47°13' W 002°40'5 8.7
2018-Jan-09 22:27N 47°17' W 002°36'4 8.5
2018-Jan-09 22:00N 47°20' W 002°32'1 2.4
2018-Jan-09 21:29N 47°21' W 002°31'  
Track history (hours):
 
Tides and Currents Weather Stations Pressure Air Temp Water Temp Dewpoint Dewpoint Depression Visibility Wind Speed Wind Dir Waves Ship Positions

F/V Les Menhirs

Last reported at 2018-Jan-19 03:45 UTC. Time now 2018-Jan-19 07:54 UTC.
Position N 47°10' W 003°21'.

Length 18 m.

Type: Fishing. MMSI: 228138000.

Date/timePositionNaut miles runAvg speedWind from/ knotsBaromVisibWave heightAir tempDewpointWater temp
2018-Jan-19 03:45N 47°10' W 003°21'2 9.0
2018-Jan-19 03:30N 47°12' W 003°21'5 9.1
2018-Jan-19 03:00N 47°16' W 003°21'5 9.1
2018-Jan-19 02:30N 47°21' W 003°21'4 8.8
2018-Jan-19 02:00N 47°25' W 003°22'5 8.9
2018-Jan-19 01:30N 47°30' W 003°22'4 8.8
2018-Jan-19 01:00N 47°34' W 003°22'4 8.9
2018-Jan-19 00:30N 47°39' W 003°22'4 8.9
2018-Jan-19 00:00N 47°43' W 003°22'1 1.0
2018-Jan-18 23:30N 47°44' W 003°22'0 0.1
2018-Jan-18 23:00N 47°44' W 003°22'0 0.0
2018-Jan-18 22:30N 47°44' W 003°22'0 0.0
2018-Jan-18 22:00N 47°44' W 003°22'0 0.0
2018-Jan-18 21:30N 47°44' W 003°22'0 0.0
2018-Jan-18 21:00N 47°44' W 003°22'0 0.0
2018-Jan-18 20:30N 47°44' W 003°22'0 0.0
2018-Jan-18 20:00N 47°44' W 003°22'0 0.0
2018-Jan-18 19:30N 47°44' W 003°22'0 0.0
2018-Jan-18 19:00N 47°44' W 003°22'0 0.0
2018-Jan-18 18:30N 47°44' W 003°22'0 0.0
2018-Jan-18 18:00N 47°44' W 003°22'0 0.0
2018-Jan-18 17:30N 47°44' W 003°22'0 0.0
2018-Jan-18 17:00N 47°44' W 003°22'0 0.0
2018-Jan-18 16:29N 47°44' W 003°22'0 0.0
2018-Jan-18 16:00N 47°44' W 003°22'0 0.0
2018-Jan-18 15:30N 47°44' W 003°22'0 0.0
2018-Jan-18 15:00N 47°44' W 003°22'0 0.0
2018-Jan-18 14:30N 47°44' W 003°22'0 0.0
2018-Jan-18 14:00N 47°44' W 003°22'0 0.0
2018-Jan-18 13:30N 47°44' W 003°22'0 0.0
2018-Jan-18 13:00N 47°44' W 003°22'0 0.0
2018-Jan-18 12:30N 47°44' W 003°22'0 0.0
2018-Jan-18 12:00N 47°44' W 003°22'0 0.0
2018-Jan-18 11:30N 47°44' W 003°22'0 0.0
2018-Jan-18 11:00N 47°44' W 003°22'0 0.0
2018-Jan-18 10:30N 47°44' W 003°22'0 0.0
2018-Jan-18 10:00N 47°44' W 003°22'0 0.0
2018-Jan-18 09:30N 47°44' W 003°22'0 0.0
2018-Jan-18 09:00N 47°44' W 003°22'0 0.0
2018-Jan-18 08:30N 47°44' W 003°22'0 0.0
2018-Jan-18 07:59N 47°44' W 003°22'0 0.0
2018-Jan-18 07:30N 47°44' W 003°22'0 0.0
2018-Jan-18 07:00N 47°44' W 003°22'0 0.0
2018-Jan-18 06:30N 47°44' W 003°22'0 0.0
2018-Jan-18 06:00N 47°44' W 003°22'0 0.0
2018-Jan-18 05:30N 47°44' W 003°22'0 0.0
2018-Jan-18 05:00N 47°44' W 003°22'0 0.0
2018-Jan-18 04:30N 47°44' W 003°22'0 0.0
2018-Jan-18 04:00N 47°44' W 003°22'0 0.0
2018-Jan-18 03:30N 47°44' W 003°22'0 0.0
2018-Jan-18 03:00N 47°44' W 003°22'0 0.0
2018-Jan-18 02:30N 47°44' W 003°22'0 0.0
2018-Jan-18 02:00N 47°44' W 003°22'0 0.0
2018-Jan-18 01:30N 47°44' W 003°22'0 0.0
2018-Jan-18 01:00N 47°44' W 003°22'0 0.0
2018-Jan-18 00:00N 47°44' W 003°22'0 0.0
2018-Jan-17 23:57N 47°44' W 003°22'  
2018-Jan-12 04:53N 47°05' W 002°39'4 9.1
2018-Jan-12 04:24N 47°09' W 002°37'4 9.1
2018-Jan-12 03:56N 47°14' W 002°36'4 9.2
2018-Jan-12 03:29N 47°18' W 002°35'4 2.3
2018-Jan-12 01:39N 47°21' W 002°31'0 0.3
2018-Jan-12 01:30N 47°21' W 002°31'0 0.0
2018-Jan-12 01:00N 47°21' W 002°31'0 0.0
2018-Jan-12 00:30N 47°21' W 002°31'0 0.0
2018-Jan-12 00:00N 47°21' W 002°31'13 8.1
2018-Jan-11 22:22N 47°17' W 002°50'4 9.2
2018-Jan-11 21:53N 47°15' W 002°55'1 1.5
2018-Jan-11 21:30N 47°16' W 002°55'1 2.4
2018-Jan-11 20:59N 47°16' W 002°54'1 2.6
2018-Jan-11 20:30N 47°16' W 002°52'2 3.4
2018-Jan-11 20:00N 47°15' W 002°51'3 2.7
2018-Jan-11 18:53N 47°14' W 002°55'1 3.4
2018-Jan-11 18:30N 47°15' W 002°55'1 2.6
2018-Jan-11 17:59N 47°16' W 002°54'2 3.1
2018-Jan-11 17:30N 47°16' W 002°52'2 3.4
2018-Jan-11 16:59N 47°15' W 002°50'10 2.3
2018-Jan-11 12:45N 47°09' W 003°02'10 0.4
2018-Jan-10 13:32N 47°00' W 002°55'12 0.8
2018-Jan-09 23:31N 47°10' W 002°45'0 8.6
2018-Jan-09 23:30N 47°10' W 002°45'4 8.8
2018-Jan-09 23:00N 47°13' W 002°40'5 8.7
2018-Jan-09 22:27N 47°17' W 002°36'4 8.5
2018-Jan-09 22:00N 47°20' W 002°32'1 2.4
2018-Jan-09 21:29N 47°21' W 002°31'  

Dump ship's entire track history